createdAt,value
2022-11-10T00:01:22.622Z,86.90
2022-11-10T00:06:24.032Z,87.65
2022-11-10T00:11:25.678Z,87.44
2022-11-10T00:16:45.810Z,89.03
2022-11-10T00:21:47.250Z,88.47
2022-11-10T00:26:49.504Z,88.79
2022-11-10T00:31:51.220Z,89.57
2022-11-10T00:36:52.677Z,90.67
2022-11-10T00:41:54.439Z,90.14
2022-11-10T00:46:55.890Z,90.19
2022-11-10T00:51:57.334Z,90.95
2022-11-10T00:56:58.825Z,90.67
2022-11-10T01:02:00.304Z,90.81
2022-11-10T01:07:01.826Z,91.15
2022-11-10T01:12:03.554Z,91.73
2022-11-10T01:17:05.067Z,91.28
2022-11-10T01:22:06.466Z,91.91
2022-11-10T01:27:07.863Z,91.52
2022-11-10T01:32:09.303Z,91.91
2022-11-10T01:37:12.111Z,92.66
2022-11-10T01:42:13.860Z,92.58
2022-11-10T01:47:15.294Z,93.18
2022-11-10T01:52:16.703Z,93.21
2022-11-10T01:57:18.431Z,93.52
2022-11-10T02:02:47.711Z,94.13
2022-11-10T02:07:51.680Z,94.15
2022-11-10T02:12:53.123Z,94.48
2022-11-10T02:17:54.555Z,94.38
2022-11-10T02:22:56.041Z,94.81
2022-11-10T02:27:57.574Z,94.64
2022-11-10T02:32:59.050Z,94.88
2022-11-10T02:38:00.548Z,94.88
2022-11-10T02:43:06.460Z,95.00
2022-11-10T02:48:09.026Z,94.95
2022-11-10T02:53:10.472Z,95.23
2022-11-10T02:58:12.119Z,95.34
2022-11-10T03:03:13.532Z,95.54
2022-11-10T03:08:14.961Z,95.56
2022-11-10T03:13:16.370Z,95.89
2022-11-10T03:18:18.116Z,95.73
2022-11-10T03:23:20.006Z,95.93
2022-11-10T03:28:21.740Z,96.17
2022-11-10T03:33:23.606Z,96.09
2022-11-10T03:38:25.155Z,96.28
2022-11-10T03:43:26.572Z,96.42
2022-11-10T03:48:28.003Z,96.57
2022-11-10T03:53:29.452Z,96.76
2022-11-10T03:58:31.260Z,96.48
2022-11-10T04:03:32.908Z,96.39
2022-11-10T04:08:53.034Z,96.28
2022-11-10T04:14:12.868Z,96.01
2022-11-10T04:19:14.667Z,96.09
2022-11-10T04:24:16.366Z,96.30
2022-11-10T04:29:19.796Z,96.34
2022-11-10T04:34:21.255Z,96.49
2022-11-10T04:39:22.696Z,96.42
2022-11-10T04:44:24.372Z,96.24
2022-11-10T04:49:25.847Z,96.03
2022-11-10T04:54:27.378Z,95.76
2022-11-10T04:59:28.798Z,95.55
2022-11-10T05:04:30.201Z,94.72
2022-11-10T05:09:31.634Z,94.95
2022-11-10T05:14:33.050Z,95.30
2022-11-10T05:19:34.463Z,94.36
2022-11-10T05:24:35.877Z,94.35
2022-11-10T05:29:37.287Z,94.23
2022-11-10T05:34:38.752Z,93.47
2022-11-10T05:39:40.397Z,92.79
2022-11-10T05:44:41.805Z,92.87
2022-11-10T05:49:43.225Z,92.26
2022-11-10T05:54:44.635Z,92.14
2022-11-10T05:59:46.077Z,92.59
2022-11-10T06:04:47.486Z,92.22
2022-11-10T06:09:48.899Z,91.90
2022-11-10T06:14:51.071Z,91.52
2022-11-10T06:19:52.509Z,91.75
2022-11-10T06:24:53.926Z,91.90
2022-11-10T06:29:55.411Z,92.38
2022-11-10T06:35:00.523Z,92.20
2022-11-10T06:40:02.301Z,92.35
2022-11-10T06:45:04.202Z,92.02
2022-11-10T06:50:06.015Z,91.95
2022-11-10T06:55:07.935Z,92.01
2022-11-10T07:00:10.286Z,92.24
2022-11-10T07:05:12.259Z,92.45
2022-11-10T07:10:14.831Z,92.42
2022-11-10T07:15:16.232Z,92.48
2022-11-10T07:20:17.735Z,92.29
2022-11-10T07:25:19.179Z,91.70
2022-11-10T07:30:20.657Z,91.64
2022-11-10T07:35:22.130Z,91.98
2022-11-10T07:40:24.073Z,91.47
2022-11-10T07:45:26.144Z,90.84
2022-11-10T07:50:28.364Z,90.94
2022-11-10T07:55:29.827Z,90.92
2022-11-10T08:00:31.839Z,90.58
2022-11-10T08:05:34.261Z,90.96
2022-11-10T08:10:36.497Z,91.07
2022-11-10T08:15:38.914Z,90.70
2022-11-10T08:20:40.328Z,90.81
2022-11-10T08:25:42.285Z,90.83
2022-11-10T08:30:46.322Z,90.29
2022-11-10T08:35:50.004Z,90.76
2022-11-10T08:40:51.499Z,90.14
2022-11-10T08:45:56.938Z,89.93
2022-11-10T08:51:00.135Z,89.25
2022-11-10T08:56:01.543Z,88.76
2022-11-10T09:01:07.314Z,87.90
2022-11-10T09:06:08.756Z,87.38
2022-11-10T09:11:10.210Z,86.07
2022-11-10T09:16:11.660Z,84.54
2022-11-10T09:21:13.159Z,83.10
2022-11-10T09:26:14.630Z,83.33
2022-11-10T09:31:16.093Z,80.01
2022-11-10T09:36:17.742Z,80.43
2022-11-10T09:41:19.236Z,80.20
2022-11-10T09:46:37.853Z,80.01
2022-11-10T09:51:47.939Z,79.20
2022-11-10T09:56:53.498Z,79.07
2022-11-10T10:02:12.739Z,76.06
2022-11-10T10:07:30.764Z,74.92
2022-11-10T10:13:06.314Z,75.06
2022-11-10T10:18:07.684Z,74.50
2022-11-10T10:23:40.702Z,72.81
2022-11-10T10:28:47.400Z,72.38
2022-11-10T10:33:49.277Z,69.82
2022-11-10T10:38:54.262Z,72.11
2022-11-10T10:43:58.915Z,72.55
2022-11-10T10:49:31.060Z,71.82
2022-11-10T10:54:35.755Z,72.76
2022-11-10T10:59:37.232Z,72.14
2022-11-10T11:04:38.641Z,71.54
2022-11-10T11:09:43.425Z,71.99
2022-11-10T11:14:46.324Z,70.73
2022-11-10T11:19:57.099Z,70.43
2022-11-10T11:25:15.959Z,71.36
2022-11-10T11:30:20.343Z,69.97
2022-11-10T11:35:34.136Z,70.37
2022-11-10T11:41:06.446Z,70.06
2022-11-10T11:46:10.737Z,70.85
2022-11-10T11:51:31.561Z,70.67
2022-11-10T11:56:39.276Z,71.46
2022-11-10T12:02:04.814Z,70.91
2022-11-10T12:07:23.591Z,71.47
2022-11-10T12:12:40.223Z,70.87
2022-11-10T12:18:19.007Z,70.94
2022-11-10T12:23:29.479Z,71.11
2022-11-10T12:28:44.291Z,71.93
2022-11-10T12:33:50.387Z,71.29
2022-11-10T12:39:12.324Z,71.14
2022-11-10T12:44:36.449Z,71.08
2022-11-10T12:49:41.598Z,70.02
2022-11-10T12:54:45.638Z,70.39
2022-11-10T13:00:06.881Z,70.20
2022-11-10T13:05:14.339Z,71.53
2022-11-10T13:10:18.510Z,70.81
2022-11-10T13:15:37.945Z,71.12
2022-11-10T13:20:39.336Z,70.68
2022-11-10T13:26:00.167Z,71.61
2022-11-10T13:31:27.568Z,72.36
2022-11-10T13:36:43.763Z,72.99
2022-11-10T13:42:01.124Z,71.88
2022-11-10T13:47:08.316Z,71.70
2022-11-10T13:52:37.744Z,71.73
2022-11-10T13:57:41.543Z,72.47
2022-11-10T14:02:50.463Z,71.40
2022-11-10T14:07:54.435Z,70.72
2022-11-10T14:13:05.676Z,70.80
2022-11-10T14:18:25.671Z,70.95
2022-11-10T14:23:47.446Z,71.63
2022-11-10T14:28:48.865Z,72.05
2022-11-10T14:33:56.051Z,72.56
2022-11-10T14:38:58.205Z,72.96
2022-11-10T14:44:05.369Z,73.38
2022-11-10T14:49:10.765Z,73.38
2022-11-10T14:54:16.983Z,73.31
2022-11-10T14:59:20.196Z,73.41
2022-11-10T15:04:31.805Z,73.86
2022-11-10T15:09:33.517Z,74.26
2022-11-10T15:14:39.406Z,74.37
2022-11-10T15:19:46.712Z,75.13
2022-11-10T15:24:51.568Z,75.89
2022-11-10T15:29:54.210Z,75.39
2022-11-10T15:35:27.490Z,76.08
2022-11-10T15:40:31.833Z,75.97
2022-11-10T15:45:33.324Z,76.02
2022-11-10T15:50:34.817Z,76.66
2022-11-10T15:55:36.272Z,77.01
2022-11-10T16:00:38.049Z,77.21
2022-11-10T16:05:41.073Z,77.94
2022-11-10T16:10:45.899Z,78.04
2022-11-10T16:15:47.858Z,78.02
2022-11-10T16:20:50.874Z,77.99
2022-11-10T16:25:55.495Z,78.66
2022-11-10T16:30:56.908Z,78.80
2022-11-10T16:35:59.927Z,79.41
2022-11-10T16:41:03.539Z,79.38
2022-11-10T16:46:14.995Z,79.28
2022-11-10T16:51:17.998Z,80.01
2022-11-10T16:56:21.015Z,80.12
2022-11-10T17:01:26.308Z,79.91
2022-11-10T17:06:29.618Z,80.09
2022-11-10T17:11:31.024Z,80.19
2022-11-10T17:16:37.635Z,80.52
2022-11-10T17:21:39.178Z,80.63
2022-11-10T17:26:41.127Z,80.41
2022-11-10T17:31:42.815Z,80.88
2022-11-10T17:36:44.441Z,80.83
2022-11-10T17:41:45.839Z,80.92
2022-11-10T17:46:47.437Z,81.17
2022-11-10T17:51:49.022Z,81.16
2022-11-10T17:56:50.421Z,80.94
2022-11-10T18:01:51.833Z,81.21
2022-11-10T18:06:53.387Z,81.83
2022-11-10T18:11:54.820Z,81.97
2022-11-10T18:16:56.284Z,81.51
2022-11-10T18:21:57.686Z,81.69
2022-11-10T18:26:59.140Z,81.68
2022-11-10T18:32:00.585Z,81.68
2022-11-10T18:37:02.023Z,81.57
2022-11-10T18:42:03.959Z,81.02
2022-11-10T18:47:12.167Z,80.63
2022-11-10T18:52:13.636Z,80.82
2022-11-10T18:57:16.664Z,80.44
2022-11-10T19:02:18.205Z,80.17
2022-11-10T19:07:19.759Z,79.96
2022-11-10T19:12:26.405Z,79.71
2022-11-10T19:17:28.304Z,79.42
2022-11-10T19:22:30.060Z,79.32
2022-11-10T19:27:31.466Z,79.00
2022-11-10T19:32:33.221Z,79.11
2022-11-10T19:37:35.030Z,79.37
2022-11-10T19:42:36.437Z,79.30
2022-11-10T19:47:37.850Z,79.36
2022-11-10T19:52:39.272Z,79.21
2022-11-10T19:57:40.707Z,79.05
2022-11-10T20:02:45.602Z,79.00
2022-11-10T20:08:09.712Z,79.34
2022-11-10T20:13:11.939Z,79.17
2022-11-10T20:18:13.554Z,79.35
2022-11-10T20:23:16.094Z,79.43
2022-11-10T20:28:17.494Z,79.53
2022-11-10T20:33:18.919Z,79.61
2022-11-10T20:38:20.452Z,79.91
2022-11-10T20:43:22.266Z,79.70
2022-11-10T20:48:23.945Z,79.81
2022-11-10T20:53:26.107Z,79.92
2022-11-10T20:58:28.626Z,80.16
2022-11-10T21:03:31.188Z,80.36
2022-11-10T21:08:33.089Z,80.37
2022-11-10T21:13:34.910Z,80.46
2022-11-10T21:18:37.059Z,80.42
2022-11-10T21:23:39.503Z,80.50
2022-11-10T21:28:40.901Z,80.30
2022-11-10T21:33:42.307Z,80.36
2022-11-10T21:38:47.119Z,80.53
2022-11-10T21:43:48.587Z,80.58
2022-11-10T21:48:50.902Z,80.72
2022-11-10T21:53:52.302Z,80.34
2022-11-10T21:58:53.702Z,80.58
2022-11-10T22:03:55.154Z,80.71
2022-11-10T22:08:56.621Z,80.87
2022-11-10T22:14:16.730Z,81.37
2022-11-10T22:19:18.333Z,81.70
2022-11-10T22:24:28.607Z,81.36
2022-11-10T22:29:32.434Z,81.65
2022-11-10T22:34:33.885Z,81.65
2022-11-10T22:39:53.998Z,81.81
2022-11-10T22:44:55.421Z,81.81
2022-11-10T22:49:56.829Z,82.18
2022-11-10T22:54:58.413Z,82.26
2022-11-10T22:59:59.838Z,81.78
2022-11-10T23:05:01.311Z,81.88
2022-11-10T23:10:02.891Z,82.20
2022-11-10T23:15:04.456Z,82.31
2022-11-10T23:20:06.417Z,82.45
2022-11-10T23:25:08.098Z,83.05
2022-11-10T23:30:10.083Z,82.84
2022-11-10T23:35:11.525Z,83.31
2022-11-10T23:40:13.314Z,83.53
2022-11-10T23:45:14.723Z,83.74
2022-11-10T23:50:16.319Z,84.06
2022-11-10T23:55:17.980Z,83.78
